Charlotte, Tennessee
Current Conditions -  °F | °C
As of 3:52 AM on Sunday 26 Oct 2014 (Local Time) from KCKV Reporting Station
Moderate Fog Moderate Fog  
Wind Chill: 53°   Ceiling: 200
Heat Index: 53°   Visibility: 0.25mi
Dew Point: 53°   Wind: 0mph
Humidity: 100%   Direction: NA
Pressure: 30"   Gusts: NA
Location:  36.18°N, 87.34°W
Report Text: KCKV 260852Z AUTO 00000KT 1/4SM FG VV002 12/12 A3000 RMK AO2 SLP156 T01170117 50001
Loading
Personal Weather Stations






























Interactive Weather Map
Tropical Storm Tracking
New forecast layout! Learn more

10-Day Weather Forecast

Advertisements
Track Severe Weather on mobile